createdAt,value
2019-04-07T00:00:41.149Z,3.85
2019-04-07T00:01:41.234Z,3.94
2019-04-07T00:02:41.129Z,3.82
2019-04-07T00:03:41.130Z,3.92
2019-04-07T00:04:41.436Z,3.96
2019-04-07T00:05:41.515Z,3.92
2019-04-07T00:06:41.509Z,3.83
2019-04-07T00:07:41.433Z,3.90
2019-04-07T00:08:41.045Z,4.06
2019-04-07T00:09:41.050Z,4.07
2019-04-07T00:10:41.373Z,4.19
2019-04-07T00:11:41.009Z,4.14
2019-04-07T00:12:41.257Z,4.29
2019-04-07T00:13:41.403Z,4.33
2019-04-07T00:14:41.003Z,4.26
2019-04-07T00:15:41.523Z,4.29
2019-04-07T00:16:40.959Z,4.29
2019-04-07T00:17:42.026Z,4.29
2019-04-07T00:18:40.993Z,4.29
2019-04-07T00:19:40.970Z,4.28
2019-04-07T00:20:42.019Z,4.40
2019-04-07T00:21:40.929Z,4.42
2019-04-07T00:22:40.896Z,4.37
2019-04-07T00:23:41.006Z,4.43
2019-04-07T00:24:40.907Z,4.43
2019-04-07T00:25:41.468Z,4.51
2019-04-07T00:26:40.874Z,4.70
2019-04-07T00:27:40.851Z,4.80
2019-04-07T00:28:40.857Z,4.79
2019-04-07T00:29:40.824Z,4.77
2019-04-07T00:30:40.843Z,4.76
2019-04-07T00:31:40.848Z,4.65
2019-04-07T00:32:41.274Z,4.54
2019-04-07T00:33:41.348Z,4.39
2019-04-07T00:34:41.449Z,4.36
2019-04-07T00:35:40.809Z,4.29
2019-04-07T00:36:40.763Z,4.26
2019-04-07T00:37:40.743Z,4.16
2019-04-07T00:38:40.750Z,4.18
2019-04-07T00:39:41.373Z,4.19
2019-04-07T00:40:40.710Z,4.18
2019-04-07T00:41:40.699Z,4.18
2019-04-07T00:42:41.309Z,4.12
2019-04-07T00:43:40.685Z,4.12
2019-04-07T00:44:40.708Z,4.07
2019-04-07T00:45:40.676Z,3.90
2019-04-07T00:46:40.664Z,3.92
2019-04-07T00:47:40.640Z,3.90
2019-04-07T00:48:40.767Z,3.86
2019-04-07T00:49:41.170Z,3.86
2019-04-07T00:50:40.622Z,3.90
2019-04-07T00:51:41.014Z,3.75
2019-04-07T00:52:40.591Z,3.70
2019-04-07T00:53:40.851Z,3.68
2019-04-07T00:54:40.894Z,3.71
2019-04-07T00:55:40.850Z,3.65
2019-04-07T00:56:41.078Z,3.61
2019-04-07T00:57:40.754Z,3.52
2019-04-07T00:58:40.655Z,3.53
2019-04-07T00:59:40.840Z,3.54
2019-04-07T01:00:40.505Z,3.49
2019-04-07T01:01:40.494Z,3.52
2019-04-07T01:02:41.311Z,3.53
2019-04-07T01:03:40.492Z,3.43
2019-04-07T01:04:40.699Z,3.39
2019-04-07T01:05:41.800Z,3.42
2019-04-07T01:06:40.621Z,3.36
2019-04-07T01:07:41.028Z,3.27
2019-04-07T01:08:40.434Z,3.30
2019-04-07T01:09:40.436Z,3.28
2019-04-07T01:10:40.555Z,3.24
2019-04-07T01:11:40.395Z,3.34
2019-04-07T01:12:41.111Z,3.34
2019-04-07T01:13:40.379Z,3.27
2019-04-07T01:14:40.423Z,3.36
2019-04-07T01:15:40.655Z,3.30
2019-04-07T01:16:40.726Z,3.42
2019-04-07T01:17:40.350Z,3.53
2019-04-07T01:18:40.517Z,3.52
2019-04-07T01:19:40.707Z,3.53
2019-04-07T01:20:40.327Z,3.57
2019-04-07T01:21:40.426Z,3.50
2019-04-07T01:22:40.799Z,3.72
2019-04-07T01:23:40.273Z,3.68
2019-04-07T01:24:40.669Z,3.53
2019-04-07T01:25:40.246Z,3.57
2019-04-07T01:26:40.512Z,3.53
2019-04-07T01:27:40.232Z,3.43
2019-04-07T01:28:41.724Z,3.44
2019-04-07T01:29:40.257Z,3.39
2019-04-07T01:30:40.416Z,3.25
2019-04-07T01:31:40.456Z,3.28
2019-04-07T01:32:40.181Z,3.16
2019-04-07T01:33:40.169Z,3.25
2019-04-07T01:34:40.444Z,3.16
2019-04-07T01:35:46.753Z,3.21
2019-04-07T01:36:41.318Z,3.18
2019-04-07T01:37:40.622Z,3.28
2019-04-07T01:38:40.122Z,3.28
2019-04-07T01:39:40.157Z,3.25
2019-04-07T01:40:40.093Z,3.23
2019-04-07T01:41:40.747Z,3.20
2019-04-07T01:42:40.076Z,3.34
2019-04-07T01:43:40.488Z,3.33
2019-04-07T01:44:40.080Z,3.47
2019-04-07T01:45:40.732Z,3.58
2019-04-07T01:46:40.466Z,3.57
2019-04-07T01:47:40.029Z,3.68
2019-04-07T01:48:40.020Z,3.65
2019-04-07T01:49:40.188Z,3.78
2019-04-07T01:50:40.129Z,3.70
2019-04-07T01:51:40.125Z,3.75
2019-04-07T01:52:39.977Z,3.68
2019-04-07T01:53:39.966Z,3.65
2019-04-07T01:54:40.025Z,3.60
2019-04-07T01:55:40.042Z,3.49
2019-04-07T01:56:40.000Z,3.54
2019-04-07T01:57:39.952Z,3.49
2019-04-07T01:58:40.674Z,3.52
2019-04-07T01:59:39.932Z,3.46
2019-04-07T02:00:40.367Z,3.50
2019-04-07T02:01:40.094Z,3.53
2019-04-07T02:02:40.117Z,3.60
2019-04-07T02:03:39.856Z,3.49
2019-04-07T02:04:39.984Z,3.50
2019-04-07T02:05:39.841Z,3.44
2019-04-07T02:06:39.959Z,3.54
2019-04-07T02:07:40.077Z,3.61
2019-04-07T02:08:40.292Z,3.72
2019-04-07T02:09:40.236Z,3.79
2019-04-07T02:10:40.719Z,3.78
2019-04-07T02:11:40.144Z,3.78
2019-04-07T02:12:40.211Z,3.78
2019-04-07T02:13:40.475Z,3.94
2019-04-07T02:14:41.062Z,3.96
2019-04-07T02:15:40.588Z,3.97
2019-04-07T02:16:40.023Z,4.08
2019-04-07T02:17:40.703Z,4.12
2019-04-07T02:18:40.088Z,4.15
2019-04-07T02:19:40.785Z,4.16
2019-04-07T02:20:39.736Z,4.19
2019-04-07T02:21:40.332Z,4.14
2019-04-07T02:22:39.702Z,4.01
2019-04-07T02:23:40.509Z,3.97
2019-04-07T02:24:39.942Z,3.85
2019-04-07T02:25:39.682Z,3.90
2019-04-07T02:26:39.762Z,3.76
2019-04-07T02:27:39.670Z,3.70
2019-04-07T02:28:40.830Z,3.68
2019-04-07T02:29:40.066Z,3.67
2019-04-07T02:30:39.631Z,3.54
2019-04-07T02:31:40.092Z,3.62
2019-04-07T02:32:39.622Z,3.64
2019-04-07T02:33:39.600Z,3.53
2019-04-07T02:34:40.093Z,3.57
2019-04-07T02:35:39.605Z,3.46
2019-04-07T02:36:39.572Z,3.39
2019-04-07T02:37:39.635Z,3.43
2019-04-07T02:38:39.758Z,3.40
2019-04-07T02:39:39.555Z,3.42
2019-04-07T02:40:40.544Z,3.46
2019-04-07T02:41:40.177Z,3.34
2019-04-07T02:42:39.919Z,3.27
2019-04-07T02:43:40.375Z,3.34
2019-04-07T02:44:39.511Z,3.42
2019-04-07T02:45:39.480Z,3.50
2019-04-07T02:46:40.675Z,3.53
2019-04-07T02:47:39.488Z,3.60
2019-04-07T02:48:39.577Z,3.58
2019-04-07T02:49:39.533Z,3.57
2019-04-07T02:50:39.910Z,3.53
2019-04-07T02:51:40.321Z,3.57
2019-04-07T02:52:39.436Z,3.42
2019-04-07T02:53:39.393Z,3.39
2019-04-07T02:54:40.058Z,3.40
2019-04-07T02:55:39.381Z,3.52
2019-04-07T02:56:39.888Z,3.43
2019-04-07T02:57:40.318Z,3.46
2019-04-07T02:58:40.238Z,3.61
2019-04-07T02:59:41.450Z,3.68
2019-04-07T03:00:39.485Z,3.80
2019-04-07T03:01:39.318Z,3.86
2019-04-07T03:02:39.434Z,3.88
2019-04-07T03:03:39.550Z,3.79
2019-04-07T03:04:39.281Z,3.80
2019-04-07T03:05:40.366Z,3.68
2019-04-07T03:06:47.786Z,3.71
2019-04-07T03:07:41.269Z,3.54
2019-04-07T03:08:39.634Z,3.62
2019-04-07T03:09:40.004Z,3.54
2019-04-07T03:10:39.252Z,3.57
2019-04-07T03:11:39.374Z,3.60
2019-04-07T03:12:39.398Z,3.60
2019-04-07T03:13:39.321Z,3.53
2019-04-07T03:14:39.296Z,3.61
2019-04-07T03:15:39.246Z,3.61
2019-04-07T03:16:39.468Z,3.64
2019-04-07T03:17:39.114Z,3.60
2019-04-07T03:18:39.125Z,3.67
2019-04-07T03:19:39.370Z,3.61
2019-04-07T03:20:39.244Z,3.62
2019-04-07T03:21:39.096Z,3.61
2019-04-07T03:22:39.743Z,3.61
2019-04-07T03:23:39.065Z,3.65
2019-04-07T03:24:39.054Z,3.52
2019-04-07T03:25:39.759Z,3.58
2019-04-07T03:26:39.054Z,3.53
2019-04-07T03:27:39.006Z,3.54
2019-04-07T03:28:39.901Z,3.61
2019-04-07T03:29:38.989Z,3.60
2019-04-07T03:30:40.897Z,3.76
2019-04-07T03:31:40.881Z,3.80
2019-04-07T03:32:42.821Z,3.85
2019-04-07T03:33:43.053Z,3.98
2019-04-07T03:34:40.818Z,3.86
2019-04-07T03:35:41.058Z,3.96
2019-04-07T03:37:09.893Z,4.04
2019-04-07T03:37:44.354Z,4.10
2019-04-07T03:38:41.083Z,4.08
2019-04-07T03:39:39.396Z,4.00
2019-04-07T03:40:39.039Z,4.06
2019-04-07T03:41:39.923Z,4.00
2019-04-07T03:42:38.866Z,4.03
2019-04-07T03:43:40.029Z,4.04
2019-04-07T03:44:38.847Z,3.97
2019-04-07T03:45:38.856Z,3.96
2019-04-07T03:46:38.976Z,3.96
2019-04-07T03:47:39.578Z,4.04
2019-04-07T03:48:38.801Z,4.12
2019-04-07T03:49:39.301Z,4.22
2019-04-07T03:50:38.818Z,4.14
2019-04-07T03:51:39.378Z,4.12
2019-04-07T03:52:39.376Z,4.10
2019-04-07T03:53:39.327Z,4.08
2019-04-07T03:54:39.855Z,4.04
2019-04-07T03:55:38.834Z,4.10
2019-04-07T03:56:38.717Z,4.15
2019-04-07T03:57:39.042Z,4.10
2019-04-07T03:58:40.656Z,4.36
2019-04-07T03:59:38.692Z,4.32
2019-04-07T04:00:39.298Z,4.43
2019-04-07T04:01:38.688Z,4.42
2019-04-07T04:02:39.076Z,4.47
2019-04-07T04:03:38.805Z,4.47
2019-04-07T04:04:39.502Z,4.46
2019-04-07T04:05:39.358Z,4.42
2019-04-07T04:06:38.888Z,4.43
2019-04-07T04:07:39.132Z,4.37
2019-04-07T04:08:38.573Z,4.26
2019-04-07T04:09:40.905Z,4.25
2019-04-07T04:10:38.647Z,4.37
2019-04-07T04:11:39.400Z,4.26
2019-04-07T04:12:38.598Z,4.28
2019-04-07T04:13:38.533Z,4.32
2019-04-07T04:14:38.522Z,4.26
2019-04-07T04:15:39.507Z,4.44
2019-04-07T04:16:38.503Z,4.42
2019-04-07T04:17:39.129Z,4.39
2019-04-07T04:18:39.234Z,4.51
2019-04-07T04:19:38.720Z,4.51
2019-04-07T04:20:38.802Z,4.62
2019-04-07T04:21:38.452Z,4.58
2019-04-07T04:22:39.552Z,4.75
2019-04-07T04:23:41.529Z,4.69
2019-04-07T04:24:38.424Z,4.67
2019-04-07T04:25:38.602Z,4.65
2019-04-07T04:26:38.396Z,4.62
2019-04-07T04:27:38.762Z,4.67
2019-04-07T04:28:39.055Z,4.57
2019-04-07T04:29:39.314Z,4.54
2019-04-07T04:30:38.400Z,4.43
2019-04-07T04:31:38.916Z,4.36
2019-04-07T04:32:39.465Z,4.40
2019-04-07T04:33:38.328Z,4.28
2019-04-07T04:34:39.006Z,4.36
2019-04-07T04:35:38.858Z,4.26
2019-04-07T04:36:38.295Z,4.29
2019-04-07T04:37:44.178Z,4.25
2019-04-07T04:38:39.278Z,4.36
2019-04-07T04:39:38.790Z,4.46
2019-04-07T04:40:38.286Z,4.37
2019-04-07T04:41:38.614Z,4.42
2019-04-07T04:42:38.364Z,4.40
2019-04-07T04:43:38.491Z,4.50
2019-04-07T04:44:38.230Z,4.43
2019-04-07T04:45:38.657Z,4.42
2019-04-07T04:46:38.746Z,4.42
2019-04-07T04:47:39.317Z,4.29
2019-04-07T04:48:38.760Z,4.26
2019-04-07T04:49:38.517Z,4.24
2019-04-07T04:50:38.465Z,4.19
2019-04-07T04:51:39.541Z,4.29
2019-04-07T04:52:38.326Z,4.32
2019-04-07T04:53:38.251Z,4.28
2019-04-07T04:54:38.849Z,4.34
2019-04-07T04:55:38.120Z,4.33
2019-04-07T04:56:38.118Z,4.39
2019-04-07T04:57:38.643Z,4.47
2019-04-07T04:58:38.232Z,4.44
2019-04-07T04:59:38.103Z,4.39
2019-04-07T05:00:38.424Z,4.43
2019-04-07T05:01:38.039Z,4.39
2019-04-07T05:02:38.305Z,4.44
2019-04-07T05:03:38.357Z,4.40
2019-04-07T05:04:38.503Z,4.37
2019-04-07T05:05:38.148Z,4.47
2019-04-07T05:06:37.988Z,4.46
2019-04-07T05:07:51.721Z,4.62
2019-04-07T05:08:39.227Z,4.65
2019-04-07T05:09:44.306Z,4.72
2019-04-07T05:10:38.986Z,4.75
2019-04-07T05:11:37.935Z,4.73
2019-04-07T05:12:38.021Z,4.75
2019-04-07T05:13:38.496Z,4.73
2019-04-07T05:14:37.921Z,4.67
2019-04-07T05:15:37.953Z,4.70
2019-04-07T05:16:37.901Z,4.70
2019-04-07T05:17:38.126Z,4.72
2019-04-07T05:18:38.260Z,4.77
2019-04-07T05:19:37.854Z,4.88
2019-04-07T05:20:37.872Z,4.89
2019-04-07T05:21:37.859Z,4.86
2019-04-07T05:22:38.048Z,4.83
2019-04-07T05:23:38.496Z,4.79
2019-04-07T05:24:37.800Z,4.80
2019-04-07T05:25:37.865Z,4.86
2019-04-07T05:26:37.789Z,4.83
2019-04-07T05:27:38.273Z,4.89
2019-04-07T05:28:38.026Z,4.89
2019-04-07T05:29:37.754Z,4.86
2019-04-07T05:30:38.027Z,4.84
2019-04-07T05:31:37.985Z,4.98
2019-04-07T05:32:37.899Z,4.95
2019-04-07T05:33:37.707Z,4.92
2019-04-07T05:34:37.842Z,4.89
2019-04-07T05:35:37.964Z,4.91
2019-04-07T05:36:37.959Z,4.92
2019-04-07T05:37:38.359Z,4.98
2019-04-07T05:38:37.787Z,4.98
2019-04-07T05:39:38.362Z,5.09
2019-04-07T05:40:37.669Z,5.20
2019-04-07T05:41:38.415Z,5.13
2019-04-07T05:42:37.950Z,5.30
2019-04-07T05:43:38.164Z,5.34
2019-04-07T05:44:37.593Z,5.30
2019-04-07T05:45:37.762Z,5.32
2019-04-07T05:46:40.283Z,5.35
2019-04-07T05:47:37.563Z,5.45
2019-04-07T05:48:38.277Z,5.56
2019-04-07T05:49:37.778Z,5.52
2019-04-07T05:50:37.576Z,5.55
2019-04-07T05:51:37.521Z,5.64
2019-04-07T05:52:39.817Z,5.66
2019-04-07T05:53:37.718Z,5.67
2019-04-07T05:54:37.868Z,5.70
2019-04-07T05:55:38.022Z,5.60
2019-04-07T05:56:38.004Z,5.77
2019-04-07T05:57:37.799Z,5.73
2019-04-07T05:58:38.690Z,5.78
2019-04-07T05:59:37.686Z,5.78
2019-04-07T06:00:37.498Z,5.92
2019-04-07T06:01:37.418Z,5.93
2019-04-07T06:02:37.566Z,5.93
2019-04-07T06:03:41.179Z,6.00
2019-04-07T06:04:38.390Z,5.95
2019-04-07T06:05:37.673Z,6.06
2019-04-07T06:06:39.888Z,6.09
2019-04-07T06:07:37.828Z,6.14
2019-04-07T06:08:39.902Z,6.19
2019-04-07T06:09:37.375Z,6.25
2019-04-07T06:10:38.634Z,6.25
2019-04-07T06:12:47.386Z,6.40
2019-04-07T06:13:46.616Z,6.43
2019-04-07T06:14:46.986Z,6.63
2019-04-07T06:15:46.650Z,6.59
2019-04-07T06:16:46.032Z,6.68
2019-04-07T06:17:46.033Z,6.79
2019-04-07T06:18:46.629Z,6.84
2019-04-07T06:19:46.022Z,6.83
2019-04-07T06:20:46.691Z,6.91
2019-04-07T06:21:47.272Z,6.99
2019-04-07T06:22:46.991Z,7.07
2019-04-07T06:23:45.954Z,7.09
2019-04-07T06:24:46.103Z,7.13
2019-04-07T06:25:46.418Z,7.16
2019-04-07T06:26:49.679Z,7.20
2019-04-07T06:27:46.653Z,7.29
2019-04-07T06:28:51.141Z,7.37
2019-04-07T06:29:46.897Z,7.40
2019-04-07T06:30:46.194Z,7.45
2019-04-07T06:31:45.897Z,7.37
2019-04-07T06:32:46.313Z,7.38
2019-04-07T06:33:45.898Z,7.37
2019-04-07T06:34:48.687Z,7.40
2019-04-07T06:35:47.329Z,7.42
2019-04-07T06:36:48.375Z,7.44
2019-04-07T06:37:47.588Z,7.52
2019-04-07T06:38:50.971Z,7.62
2019-04-07T06:39:50.046Z,7.66
2019-04-07T06:40:45.986Z,7.69
2019-04-07T06:41:46.515Z,7.71
2019-04-07T06:42:45.879Z,7.74
2019-04-07T06:43:46.357Z,7.74
2019-04-07T06:44:45.825Z,7.74
2019-04-07T06:45:46.402Z,7.90
2019-04-07T06:46:45.754Z,7.94
2019-04-07T06:47:45.774Z,7.87
2019-04-07T06:48:46.041Z,8.02
2019-04-07T06:49:47.167Z,8.15
2019-04-07T06:50:50.793Z,8.15
2019-04-07T06:51:46.690Z,8.22
2019-04-07T06:52:45.666Z,8.30
2019-04-07T06:53:48.216Z,8.35
2019-04-07T06:54:46.042Z,8.37
2019-04-07T06:55:46.113Z,8.32
2019-04-07T06:56:45.767Z,8.25
2019-04-07T06:57:46.515Z,8.35
2019-04-07T06:58:45.600Z,8.42
2019-04-07T06:59:48.946Z,8.54
2019-04-07T07:00:45.575Z,8.68
2019-04-07T07:01:45.934Z,8.57
2019-04-07T07:02:45.557Z,8.69
2019-04-07T07:03:45.540Z,8.68
2019-04-07T07:04:46.562Z,8.68
2019-04-07T07:05:46.207Z,8.79
2019-04-07T07:06:47.176Z,8.78
2019-04-07T07:07:47.784Z,8.88
2019-04-07T07:08:47.466Z,8.88
2019-04-07T07:09:45.862Z,8.87
2019-04-07T07:10:45.700Z,8.94
2019-04-07T07:11:46.127Z,8.91
2019-04-07T07:12:46.109Z,9.02
2019-04-07T07:13:45.441Z,9.27
2019-04-07T07:14:46.943Z,9.28
2019-04-07T07:15:46.078Z,9.30
2019-04-07T07:16:46.844Z,9.28
2019-04-07T07:17:47.823Z,9.20
2019-04-07T07:18:45.869Z,9.18
2019-04-07T07:19:45.375Z,9.27
2019-04-07T07:20:46.128Z,9.25
2019-04-07T07:21:45.381Z,9.43
2019-04-07T07:22:47.584Z,9.38
2019-04-07T07:23:48.919Z,9.43
2019-04-07T07:24:47.099Z,9.48
2019-04-07T07:25:45.486Z,9.48
2019-04-07T07:26:45.314Z,9.63
2019-04-07T07:27:46.037Z,9.64
2019-04-07T07:28:45.779Z,9.71
2019-04-07T07:29:46.767Z,9.70
2019-04-07T07:30:47.361Z,9.76
2019-04-07T07:31:45.289Z,9.93
2019-04-07T07:32:45.235Z,10.04
2019-04-07T07:33:45.235Z,10.14
2019-04-07T07:34:45.220Z,10.28
2019-04-07T07:35:48.824Z,10.28
2019-04-07T07:36:46.721Z,10.40
2019-04-07T07:37:45.526Z,10.43
2019-04-07T07:38:55.436Z,10.39
2019-04-07T07:39:47.044Z,10.42
2019-04-07T07:40:47.791Z,10.39
2019-04-07T07:41:45.702Z,10.39
2019-04-07T07:42:46.679Z,10.40
2019-04-07T07:43:46.055Z,10.44
2019-04-07T07:44:45.118Z,10.51
2019-04-07T07:45:48.326Z,10.63
2019-04-07T07:46:45.336Z,10.73
2019-04-07T07:47:45.113Z,10.81
2019-04-07T07:48:45.647Z,10.81
2019-04-07T07:49:45.056Z,10.70
2019-04-07T07:50:45.774Z,10.88
2019-04-07T07:51:47.582Z,10.92
2019-04-07T07:52:47.303Z,11.13
2019-04-07T07:53:45.071Z,11.25
2019-04-07T07:54:46.087Z,11.46
2019-04-07T07:55:45.541Z,11.62
2019-04-07T07:56:48.654Z,11.82
2019-04-07T07:57:45.970Z,12.09
2019-04-07T07:58:45.183Z,12.21
2019-04-07T07:59:44.987Z,12.38
2019-04-07T08:00:44.944Z,12.48
2019-04-07T08:01:46.977Z,12.46
2019-04-07T08:02:49.081Z,12.57
2019-04-07T08:03:45.986Z,12.52
2019-04-07T08:04:44.926Z,12.48
2019-04-07T08:05:45.480Z,12.48
2019-04-07T08:06:45.042Z,12.44
2019-04-07T08:07:48.203Z,12.79
2019-04-07T08:08:46.207Z,12.92
2019-04-07T08:09:44.872Z,13.06
2019-04-07T08:10:45.080Z,13.29
2019-04-07T08:11:44.948Z,13.30
2019-04-07T08:12:45.729Z,13.15
2019-04-07T08:13:45.948Z,13.14
2019-04-07T08:14:49.695Z,13.27
2019-04-07T08:15:45.870Z,13.07
2019-04-07T08:16:44.771Z,12.92
2019-04-07T08:17:45.269Z,12.85
2019-04-07T08:18:46.436Z,12.89
2019-04-07T08:19:45.614Z,13.06
2019-04-07T08:20:45.183Z,12.77
2019-04-07T08:21:45.516Z,12.54
2019-04-07T08:22:45.012Z,12.49
2019-04-07T08:23:45.428Z,12.54
2019-04-07T08:24:45.488Z,12.70
2019-04-07T08:25:44.679Z,12.75
2019-04-07T08:26:44.824Z,12.64
2019-04-07T08:27:45.251Z,12.87
2019-04-07T08:28:45.072Z,13.09
2019-04-07T08:29:45.225Z,13.41
2019-04-07T08:30:47.464Z,13.62
2019-04-07T08:31:44.899Z,13.58
2019-04-07T08:32:45.335Z,13.80
2019-04-07T08:33:44.622Z,13.89
2019-04-07T08:34:44.868Z,14.21
2019-04-07T08:35:44.581Z,14.29
2019-04-07T08:36:46.187Z,14.64
2019-04-07T08:37:46.345Z,14.74
2019-04-07T08:38:44.553Z,14.74
2019-04-07T08:39:44.636Z,14.74
2019-04-07T08:40:44.601Z,14.60
2019-04-07T08:41:45.187Z,14.52
2019-04-07T08:42:48.270Z,14.54
2019-04-07T08:43:45.207Z,14.83
2019-04-07T08:44:45.148Z,14.75
2019-04-07T08:45:44.901Z,14.69
2019-04-07T08:46:45.350Z,14.46
2019-04-07T08:47:47.348Z,14.44
2019-04-07T08:48:44.440Z,14.43
2019-04-07T08:49:44.429Z,14.53
2019-04-07T08:50:45.242Z,14.68
2019-04-07T08:51:44.887Z,14.64
2019-04-07T08:52:44.392Z,14.75
2019-04-07T08:53:45.117Z,14.62
2019-04-07T08:54:48.259Z,14.49
2019-04-07T08:55:48.594Z,14.42
2019-04-07T08:56:44.379Z,14.46
2019-04-07T08:57:44.603Z,14.38
2019-04-07T08:58:44.544Z,14.43
2019-04-07T08:59:45.362Z,14.39
2019-04-07T09:00:51.015Z,14.28
2019-04-07T09:01:45.336Z,14.31
2019-04-07T09:02:59.181Z,14.49
2019-04-07T09:03:45.885Z,14.67
2019-04-07T09:05:06.526Z,14.87
2019-04-07T09:05:51.463Z,14.81
2019-04-07T09:06:45.873Z,14.60
2019-04-07T09:07:44.888Z,14.67
2019-04-07T09:08:44.812Z,14.86
2019-04-07T09:10:53.806Z,14.90
2019-04-07T09:11:57.266Z,14.91
2019-04-07T09:12:53.296Z,15.08
2019-04-07T09:13:54.803Z,15.41
2019-04-07T09:15:14.357Z,15.51
2019-04-07T09:15:56.757Z,15.68
2019-04-07T09:16:56.121Z,15.81
2019-04-07T09:17:53.279Z,16.04
2019-04-07T09:19:01.780Z,15.97
2019-04-07T09:19:55.403Z,15.93
2019-04-07T09:20:53.221Z,15.76
2019-04-07T09:21:54.240Z,15.99
2019-04-07T09:22:56.846Z,16.18
2019-04-07T09:23:55.706Z,16.44
2019-04-07T09:24:54.846Z,16.55
2019-04-07T09:25:53.172Z,16.83
2019-04-07T09:26:53.171Z,16.95
2019-04-07T09:27:57.250Z,16.85
2019-04-07T09:28:55.727Z,17.11
2019-04-07T09:31:03.614Z,16.63
2019-04-07T09:32:02.727Z,16.50
2019-04-07T09:33:03.307Z,16.41
2019-04-07T09:34:03.565Z,16.60
2019-04-07T09:35:06.917Z,16.73
2019-04-07T09:36:03.704Z,17.07
2019-04-07T09:37:05.794Z,17.43
2019-04-07T09:38:03.224Z,17.66
2019-04-07T09:39:03.905Z,17.78
2019-04-07T09:40:04.522Z,17.62
2019-04-07T09:41:27.488Z,17.91
2019-04-07T09:42:26.753Z,17.95
2019-04-07T09:43:05.456Z,17.69
2019-04-07T09:44:09.218Z,17.53
2019-04-07T09:45:03.363Z,17.48
2019-04-07T09:46:03.552Z,17.41
2019-04-07T09:47:02.496Z,17.25
2019-04-07T09:48:02.492Z,17.08
2019-04-07T09:49:04.481Z,16.93
2019-04-07T09:50:04.808Z,16.70
2019-04-07T09:52:15.079Z,16.96
2019-04-07T09:53:13.788Z,17.32
2019-04-07T09:54:13.205Z,17.55
2019-04-07T09:55:13.114Z,17.66
2019-04-07T09:56:13.017Z,17.92
2019-04-07T09:57:14.201Z,17.87
2019-04-07T09:58:12.988Z,17.69
2019-04-07T09:59:18.160Z,17.71
2019-04-07T10:00:14.308Z,17.71
2019-04-07T10:01:15.138Z,17.63
2019-04-07T10:02:38.286Z,17.84
2019-04-07T10:03:14.035Z,17.84
2019-04-07T10:04:30.453Z,17.95
2019-04-07T10:05:12.945Z,18.04
2019-04-07T10:06:12.916Z,18.06
2019-04-07T10:07:15.123Z,17.92
2019-04-07T10:08:13.899Z,17.79
2019-04-07T10:09:12.179Z,17.28
2019-04-07T10:10:14.789Z,17.53
2019-04-07T10:11:12.947Z,17.87
2019-04-07T10:12:13.060Z,18.04
2019-04-07T10:13:14.637Z,18.06
2019-04-07T10:14:12.927Z,18.44
2019-04-07T10:15:13.006Z,18.84
2019-04-07T10:16:13.276Z,19.20
2019-04-07T10:17:12.969Z,19.11
2019-04-07T10:18:13.212Z,18.67
2019-04-07T10:19:12.049Z,18.82
2019-04-07T10:20:12.347Z,18.77
2019-04-07T10:21:12.294Z,18.72
2019-04-07T10:22:12.456Z,18.90
2019-04-07T10:23:16.397Z,19.38
2019-04-07T10:24:33.003Z,19.13
2019-04-07T10:25:12.931Z,18.59
2019-04-07T10:26:13.081Z,18.50
2019-04-07T10:27:12.923Z,18.34
2019-04-07T10:28:51.467Z,18.31
2019-04-07T10:29:12.256Z,18.09
2019-04-07T10:30:11.940Z,17.71
2019-04-07T10:31:12.611Z,17.46
2019-04-07T10:32:12.501Z,17.40
2019-04-07T10:33:12.168Z,17.40
2019-04-07T10:34:13.287Z,17.32
2019-04-07T10:35:33.540Z,17.35
2019-04-07T10:36:33.494Z,17.26
2019-04-07T10:37:12.135Z,16.96
2019-04-07T10:38:15.343Z,16.73
2019-04-07T10:39:27.508Z,16.81
2019-04-07T10:40:19.528Z,16.95
2019-04-07T10:41:14.074Z,16.92
2019-04-07T10:42:12.667Z,17.22
2019-04-07T10:43:13.802Z,17.28
2019-04-07T10:44:34.071Z,17.36
2019-04-07T10:45:12.014Z,17.62
2019-04-07T10:47:21.833Z,17.70
2019-04-07T10:48:24.887Z,17.55
2019-04-07T10:49:22.775Z,17.47
2019-04-07T10:50:21.159Z,17.59
2019-04-07T10:51:21.172Z,17.69
2019-04-07T10:52:21.454Z,17.91
2019-04-07T10:53:21.116Z,17.97
2019-04-07T10:54:22.207Z,18.00
2019-04-07T10:55:21.115Z,18.07
2019-04-07T10:56:21.250Z,18.19
2019-04-07T10:57:22.114Z,18.59
2019-04-07T10:58:21.059Z,19.15
2019-04-07T10:59:21.049Z,19.60
2019-04-07T11:00:21.354Z,19.83
2019-04-07T11:01:21.078Z,20.02
2019-04-07T11:02:21.008Z,20.13
2019-04-07T11:03:21.353Z,20.05
2019-04-07T11:04:21.807Z,20.02
2019-04-07T11:05:21.739Z,19.72
2019-04-07T11:06:21.608Z,19.54
2019-04-07T11:07:21.641Z,19.54
2019-04-07T11:08:20.960Z,18.97
2019-04-07T11:09:21.157Z,18.54
2019-04-07T11:10:33.057Z,18.31
2019-04-07T11:11:22.274Z,17.74
2019-04-07T11:12:21.177Z,17.40
2019-04-07T11:13:20.979Z,17.00
2019-04-07T11:14:21.691Z,16.77
2019-04-07T11:15:20.884Z,16.62
2019-04-07T11:16:20.872Z,16.73
2019-04-07T11:17:21.566Z,16.77
2019-04-07T11:18:20.866Z,16.95
2019-04-07T11:19:20.834Z,17.18
2019-04-07T11:20:21.439Z,17.06
2019-04-07T11:21:21.481Z,17.35
2019-04-07T11:22:20.804Z,17.41
2019-04-07T11:23:20.819Z,17.67
2019-04-07T11:24:20.778Z,18.03
2019-04-07T11:25:20.764Z,18.58
2019-04-07T11:26:20.900Z,19.21
2019-04-07T11:27:21.128Z,19.18
2019-04-07T11:28:20.884Z,18.79
2019-04-07T11:29:20.731Z,18.70
2019-04-07T11:30:21.337Z,18.64
2019-04-07T11:31:21.235Z,18.74
2019-04-07T11:32:20.698Z,18.99
2019-04-07T11:33:20.921Z,19.40
2019-04-07T11:34:20.670Z,19.84
2019-04-07T11:35:21.125Z,20.77
2019-04-07T11:36:22.564Z,21.13
2019-04-07T11:37:20.664Z,21.19
2019-04-07T11:38:21.265Z,20.90
2019-04-07T11:39:20.624Z,20.72
2019-04-07T11:40:21.048Z,20.56
2019-04-07T11:41:23.594Z,20.77
2019-04-07T11:42:21.592Z,21.09
2019-04-07T11:43:20.832Z,21.51
2019-04-07T11:44:20.605Z,21.98
2019-04-07T11:45:20.775Z,22.09
2019-04-07T11:46:20.543Z,22.10
2019-04-07T11:47:20.761Z,21.90
2019-04-07T11:48:20.995Z,21.14
2019-04-07T11:49:21.369Z,20.39
2019-04-07T11:50:21.254Z,19.87
2019-04-07T11:51:20.636Z,19.69
2019-04-07T11:52:20.490Z,20.02
2019-04-07T11:53:21.227Z,20.25
2019-04-07T11:54:20.477Z,20.50
2019-04-07T11:55:20.531Z,20.65
2019-04-07T11:56:20.678Z,20.76
2019-04-07T11:57:20.537Z,20.33
2019-04-07T11:58:27.304Z,20.18
2019-04-07T11:59:21.945Z,19.86
2019-04-07T12:00:20.651Z,19.69
2019-04-07T12:01:20.386Z,19.72
2019-04-07T12:02:21.616Z,19.60
2019-04-07T12:03:24.811Z,19.40
2019-04-07T12:04:21.692Z,19.32
2019-04-07T12:05:20.342Z,18.90
2019-04-07T12:06:23.381Z,18.65
2019-04-07T12:07:21.937Z,18.65
2019-04-07T12:08:20.431Z,18.73
2019-04-07T12:09:20.686Z,18.86
2019-04-07T12:10:20.378Z,19.24
2019-04-07T12:11:20.296Z,18.99
2019-04-07T12:12:20.452Z,18.79
2019-04-07T12:13:21.079Z,18.91
2019-04-07T12:14:20.369Z,19.13
2019-04-07T12:15:24.269Z,19.10
2019-04-07T12:16:21.991Z,19.18
2019-04-07T12:17:21.057Z,18.98
2019-04-07T12:18:20.419Z,18.90
2019-04-07T12:19:22.850Z,18.86
2019-04-07T12:20:20.737Z,18.92
2019-04-07T12:21:24.003Z,19.08
2019-04-07T12:22:21.679Z,19.02
2019-04-07T12:23:23.302Z,19.08
2019-04-07T12:24:24.674Z,19.63
2019-04-07T12:25:20.159Z,19.97
2019-04-07T12:26:20.499Z,20.54
2019-04-07T12:27:21.610Z,20.59
2019-04-07T12:28:20.582Z,20.58
2019-04-07T12:29:20.102Z,20.72
2019-04-07T12:30:22.400Z,20.66
2019-04-07T12:31:20.079Z,20.33
2019-04-07T12:32:20.255Z,19.83
2019-04-07T12:33:22.872Z,19.47
2019-04-07T12:34:20.035Z,19.33
2019-04-07T12:35:20.323Z,19.40
2019-04-07T12:36:20.546Z,19.13
2019-04-07T12:37:20.678Z,18.98
2019-04-07T12:38:20.921Z,19.40
2019-04-07T12:39:20.247Z,19.36
2019-04-07T12:40:22.349Z,19.54
2019-04-07T12:41:22.177Z,19.73
2019-04-07T12:42:20.266Z,19.86
2019-04-07T12:43:19.993Z,19.91
2019-04-07T12:44:20.182Z,20.06
2019-04-07T12:45:19.928Z,19.69
2019-04-07T12:46:21.014Z,19.54
2019-04-07T12:47:19.905Z,19.66
2019-04-07T12:48:19.923Z,19.86
2019-04-07T12:49:20.673Z,19.73
2019-04-07T12:50:21.002Z,19.51
2019-04-07T12:51:21.344Z,19.05
2019-04-07T12:52:20.597Z,19.01
2019-04-07T12:53:19.864Z,19.05
2019-04-07T12:54:20.583Z,19.25
2019-04-07T12:55:19.820Z,19.29
2019-04-07T12:56:19.857Z,19.21
2019-04-07T12:57:19.810Z,19.29
2019-04-07T12:58:19.810Z,19.18
2019-04-07T12:59:21.086Z,19.13
2019-04-07T13:00:22.700Z,19.42
2019-04-07T13:01:20.228Z,19.87
2019-04-07T13:02:21.080Z,20.62
2019-04-07T13:03:20.030Z,20.99
2019-04-07T13:04:20.075Z,21.51
2019-04-07T13:05:19.768Z,21.56
2019-04-07T13:06:20.507Z,21.98
2019-04-07T13:07:20.679Z,21.50
2019-04-07T13:08:22.536Z,21.27
2019-04-07T13:09:20.381Z,20.68
2019-04-07T13:10:20.629Z,20.13
2019-04-07T13:11:29.550Z,19.88
2019-04-07T13:12:24.602Z,19.87
2019-04-07T13:13:21.298Z,19.57